sensor_id;sensor_type;location;lat;lon;timestamp;P1;durP1;ratioP1;P2;durP2;ratioP2
23119;SDS011;11729;50.836;4.330;2023-03-01T00:01:22;17.85;;;13.90;;
23119;SDS011;11729;50.836;4.330;2023-03-01T00:06:15;18.15;;;15.35;;
23119;SDS011;11729;50.836;4.330;2023-03-01T00:08:41;16.42;;;13.98;;
23119;SDS011;11729;50.836;4.330;2023-03-01T00:11:09;15.73;;;13.77;;
23119;SDS011;11729;50.836;4.330;2023-03-01T00:13:37;15.10;;;13.30;;
23119;SDS011;11729;50.836;4.330;2023-03-01T00:16:04;16.83;;;14.55;;
23119;SDS011;11729;50.836;4.330;2023-03-01T00:18:31;14.60;;;13.13;;
23119;SDS011;11729;50.836;4.330;2023-03-01T00:20:57;18.75;;;14.82;;
23119;SDS011;11729;50.836;4.330;2023-03-01T00:23:23;15.48;;;13.88;;
23119;SDS011;11729;50.836;4.330;2023-03-01T00:25:48;18.27;;;14.68;;
23119;SDS011;11729;50.836;4.330;2023-03-01T00:28:14;17.63;;;14.60;;
23119;SDS011;11729;50.836;4.330;2023-03-01T00:30:40;15.18;;;13.68;;
23119;SDS011;11729;50.836;4.330;2023-03-01T00:33:06;17.08;;;15.23;;
23119;SDS011;11729;50.836;4.330;2023-03-01T00:35:32;15.80;;;13.98;;
23119;SDS011;11729;50.836;4.330;2023-03-01T00:37:58;16.80;;;13.98;;
23119;SDS011;11729;50.836;4.330;2023-03-01T00:40:24;17.38;;;14.07;;
23119;SDS011;11729;50.836;4.330;2023-03-01T00:42:50;19.48;;;14.48;;
23119;SDS011;11729;50.836;4.330;2023-03-01T00:45:16;18.52;;;14.48;;
23119;SDS011;11729;50.836;4.330;2023-03-01T00:47:42;16.33;;;14.30;;
23119;SDS011;11729;50.836;4.330;2023-03-01T00:50:08;15.75;;;14.15;;
23119;SDS011;11729;50.836;4.330;2023-03-01T00:52:35;21.77;;;15.30;;
23119;SDS011;11729;50.836;4.330;2023-03-01T00:55:01;18.58;;;15.13;;
23119;SDS011;11729;50.836;4.330;2023-03-01T00:57:27;16.58;;;14.98;;
23119;SDS011;11729;50.836;4.330;2023-03-01T00:59:52;17.23;;;14.52;;
23119;SDS011;11729;50.836;4.330;2023-03-01T01:02:18;18.77;;;13.40;;
23119;SDS011;11729;50.836;4.330;2023-03-01T01:04:44;16.55;;;14.75;;
23119;SDS011;11729;50.836;4.330;2023-03-01T01:07:11;17.63;;;15.00;;
23119;SDS011;11729;50.836;4.330;2023-03-01T01:09:37;16.92;;;14.02;;
23119;SDS011;11729;50.836;4.330;2023-03-01T01:12:03;16.17;;;14.32;;
23119;SDS011;11729;50.836;4.330;2023-03-01T01:14:29;15.00;;;13.40;;
23119;SDS011;11729;50.836;4.330;2023-03-01T01:16:55;15.80;;;14.13;;
23119;SDS011;11729;50.836;4.330;2023-03-01T01:19:21;16.58;;;14.88;;
23119;SDS011;11729;50.836;4.330;2023-03-01T01:21:47;16.02;;;14.32;;
23119;SDS011;11729;50.836;4.330;2023-03-01T01:24:14;15.82;;;13.80;;
23119;SDS011;11729;50.836;4.330;2023-03-01T01:26:40;14.93;;;13.32;;
23119;SDS011;11729;50.836;4.330;2023-03-01T01:29:06;15.68;;;14.18;;
23119;SDS011;11729;50.836;4.330;2023-03-01T01:31:33;18.88;;;14.35;;
23119;SDS011;11729;50.836;4.330;2023-03-01T01:33:59;16.65;;;13.52;;
23119;SDS011;11729;50.836;4.330;2023-03-01T01:36:26;16.40;;;14.60;;
23119;SDS011;11729;50.836;4.330;2023-03-01T01:38:52;16.67;;;13.95;;
23119;SDS011;11729;50.836;4.330;2023-03-01T01:41:18;18.75;;;13.82;;
23119;SDS011;11729;50.836;4.330;2023-03-01T01:43:48;17.17;;;14.25;;
23119;SDS011;11729;50.836;4.330;2023-03-01T01:46:35;15.07;;;13.32;;
23119;SDS011;11729;50.836;4.330;2023-03-01T01:49:07;16.38;;;13.80;;
23119;SDS011;11729;50.836;4.330;2023-03-01T01:51:42;15.93;;;13.93;;
23119;SDS011;11729;50.836;4.330;2023-03-01T01:54:23;14.82;;;13.30;;
23119;SDS011;11729;50.836;4.330;2023-03-01T01:56:55;15.10;;;13.55;;
23119;SDS011;11729;50.836;4.330;2023-03-01T01:59:24;16.50;;;14.23;;
23119;SDS011;11729;50.836;4.330;2023-03-01T02:01:53;16.90;;;14.50;;
23119;SDS011;11729;50.836;4.330;2023-03-01T02:04:20;16.33;;;14.63;;
23119;SDS011;11729;50.836;4.330;2023-03-01T02:06:48;15.77;;;14.20;;
23119;SDS011;11729;50.836;4.330;2023-03-01T02:09:26;16.27;;;14.40;;
23119;SDS011;11729;50.836;4.330;2023-03-01T02:11:53;15.38;;;13.88;;
23119;SDS011;11729;50.836;4.330;2023-03-01T02:14:19;15.23;;;13.63;;
23119;SDS011;11729;50.836;4.330;2023-03-01T02:16:45;16.85;;;14.07;;
23119;SDS011;11729;50.836;4.330;2023-03-01T02:19:13;17.60;;;14.23;;
23119;SDS011;11729;50.836;4.330;2023-03-01T02:22:28;16.55;;;13.85;;
23119;SDS011;11729;50.836;4.330;2023-03-01T02:27:58;16.92;;;14.63;;
23119;SDS011;11729;50.836;4.330;2023-03-01T02:30:20;16.05;;;14.00;;
23119;SDS011;11729;50.836;4.330;2023-03-01T02:32:47;17.25;;;14.38;;
23119;SDS011;11729;50.836;4.330;2023-03-01T02:35:14;16.38;;;14.68;;
23119;SDS011;11729;50.836;4.330;2023-03-01T02:37:43;16.38;;;14.68;;
23119;SDS011;11729;50.836;4.330;2023-03-01T02:40:13;16.58;;;13.93;;
23119;SDS011;11729;50.836;4.330;2023-03-01T02:42:54;16.02;;;14.32;;
23119;SDS011;11729;50.836;4.330;2023-03-01T02:45:24;17.30;;;14.88;;
23119;SDS011;11729;50.836;4.330;2023-03-01T02:47:53;16.45;;;14.73;;
23119;SDS011;11729;50.836;4.330;2023-03-01T02:55:55;17.83;;;14.35;;
23119;SDS011;11729;50.836;4.330;2023-03-01T02:58:21;17.77;;;15.07;;
23119;SDS011;11729;50.836;4.330;2023-03-01T03:00:47;17.92;;;14.73;;
23119;SDS011;11729;50.836;4.330;2023-03-01T03:03:14;16.67;;;14.95;;
23119;SDS011;11729;50.836;4.330;2023-03-01T03:05:41;17.53;;;14.90;;
23119;SDS011;11729;50.836;4.330;2023-03-01T03:08:07;18.02;;;14.48;;
23119;SDS011;11729;50.836;4.330;2023-03-01T03:10:35;15.13;;;13.57;;
23119;SDS011;11729;50.836;4.330;2023-03-01T03:13:07;17.50;;;14.45;;
23119;SDS011;11729;50.836;4.330;2023-03-01T03:15:37;16.60;;;14.85;;
23119;SDS011;11729;50.836;4.330;2023-03-01T03:18:06;17.55;;;14.68;;
23119;SDS011;11729;50.836;4.330;2023-03-01T03:20:34;15.95;;;14.27;;
23119;SDS011;11729;50.836;4.330;2023-03-01T03:23:00;21.25;;;14.77;;
23119;SDS011;11729;50.836;4.330;2023-03-01T03:25:26;16.42;;;14.45;;
23119;SDS011;11729;50.836;4.330;2023-03-01T03:27:54;16.33;;;14.53;;
23119;SDS011;11729;50.836;4.330;2023-03-01T03:30:31;16.98;;;14.48;;
23119;SDS011;11729;50.836;4.330;2023-03-01T03:32:58;18.25;;;14.48;;
23119;SDS011;11729;50.836;4.330;2023-03-01T03:35:31;16.98;;;14.38;;
23119;SDS011;11729;50.836;4.330;2023-03-01T03:37:59;15.55;;;14.05;;
23119;SDS011;11729;50.836;4.330;2023-03-01T03:42:55;16.85;;;13.93;;
23119;SDS011;11729;50.836;4.330;2023-03-01T03:45:21;15.60;;;13.98;;
23119;SDS011;11729;50.836;4.330;2023-03-01T03:47:47;17.13;;;13.85;;
23119;SDS011;11729;50.836;4.330;2023-03-01T03:50:15;15.57;;;13.95;;
23119;SDS011;11729;50.836;4.330;2023-03-01T03:52:42;17.88;;;15.38;;
23119;SDS011;11729;50.836;4.330;2023-03-01T03:55:09;17.05;;;15.27;;
23119;SDS011;11729;50.836;4.330;2023-03-01T03:57:40;18.45;;;14.85;;
23119;SDS011;11729;50.836;4.330;2023-03-01T04:00:09;17.50;;;14.30;;
23119;SDS011;11729;50.836;4.330;2023-03-01T04:02:41;18.08;;;15.27;;
23119;SDS011;11729;50.836;4.330;2023-03-01T04:05:08;17.75;;;15.00;;
23119;SDS011;11729;50.836;4.330;2023-03-01T04:07:36;17.45;;;15.77;;
23119;SDS011;11729;50.836;4.330;2023-03-01T04:10:07;16.15;;;14.50;;
23119;SDS011;11729;50.836;4.330;2023-03-01T04:12:34;17.30;;;15.23;;
23119;SDS011;11729;50.836;4.330;2023-03-01T04:15:01;18.70;;;15.32;;
23119;SDS011;11729;50.836;4.330;2023-03-01T04:17:37;15.68;;;14.07;;
23119;SDS011;11729;50.836;4.330;2023-03-01T04:20:05;17.38;;;15.35;;
23119;SDS011;11729;50.836;4.330;2023-03-01T04:22:31;16.52;;;14.93;;
23119;SDS011;11729;50.836;4.330;2023-03-01T04:24:58;16.25;;;14.50;;
23119;SDS011;11729;50.836;4.330;2023-03-01T04:27:31;18.60;;;15.43;;
23119;SDS011;11729;50.836;4.330;2023-03-01T04:30:00;17.75;;;15.45;;
23119;SDS011;11729;50.836;4.330;2023-03-01T04:32:27;19.17;;;15.75;;
23119;SDS011;11729;50.836;4.330;2023-03-01T04:34:53;17.02;;;15.05;;
23119;SDS011;11729;50.836;4.330;2023-03-01T04:37:19;18.02;;;14.75;;
23119;SDS011;11729;50.836;4.330;2023-03-01T04:39:45;17.98;;;16.00;;
23119;SDS011;11729;50.836;4.330;2023-03-01T04:42:11;20.13;;;15.57;;
23119;SDS011;11729;50.836;4.330;2023-03-01T04:44:37;17.38;;;15.68;;
23119;SDS011;11729;50.836;4.330;2023-03-01T04:47:02;17.75;;;15.05;;
23119;SDS011;11729;50.836;4.330;2023-03-01T04:49:28;17.10;;;15.30;;
23119;SDS011;11729;50.836;4.330;2023-03-01T04:51:54;19.85;;;15.55;;
23119;SDS011;11729;50.836;4.330;2023-03-01T04:54:20;17.38;;;15.60;;
23119;SDS011;11729;50.836;4.330;2023-03-01T04:56:45;20.00;;;15.82;;
23119;SDS011;11729;50.836;4.330;2023-03-01T04:59:11;19.67;;;16.00;;
23119;SDS011;11729;50.836;4.330;2023-03-01T05:01:37;19.38;;;14.90;;
23119;SDS011;11729;50.836;4.330;2023-03-01T05:04:03;17.80;;;15.70;;
23119;SDS011;11729;50.836;4.330;2023-03-01T05:06:30;22.00;;;15.38;;
23119;SDS011;11729;50.836;4.330;2023-03-01T05:08:56;16.90;;;15.10;;
23119;SDS011;11729;50.836;4.330;2023-03-01T05:11:22;20.33;;;15.55;;
23119;SDS011;11729;50.836;4.330;2023-03-01T05:13:48;16.92;;;14.95;;
23119;SDS011;11729;50.836;4.330;2023-03-01T05:16:17;16.35;;;14.65;;
23119;SDS011;11729;50.836;4.330;2023-03-01T05:18:44;19.45;;;15.75;;
23119;SDS011;11729;50.836;4.330;2023-03-01T05:21:12;19.63;;;15.57;;
23119;SDS011;11729;50.836;4.330;2023-03-01T05:23:40;17.88;;;15.95;;
23119;SDS011;11729;50.836;4.330;2023-03-01T05:26:08;19.02;;;16.42;;
23119;SDS011;11729;50.836;4.330;2023-03-01T05:28:34;17.63;;;15.75;;
23119;SDS011;11729;50.836;4.330;2023-03-01T05:31:00;19.02;;;16.48;;
23119;SDS011;11729;50.836;4.330;2023-03-01T05:33:26;18.30;;;16.15;;
23119;SDS011;11729;50.836;4.330;2023-03-01T05:35:52;17.30;;;15.50;;
23119;SDS011;11729;50.836;4.330;2023-03-01T05:38:18;18.70;;;15.50;;
23119;SDS011;11729;50.836;4.330;2023-03-01T05:40:46;16.98;;;15.15;;
23119;SDS011;11729;50.836;4.330;2023-03-01T05:43:13;23.17;;;15.63;;
23119;SDS011;11729;50.836;4.330;2023-03-01T05:45:40;17.08;;;15.25;;
23119;SDS011;11729;50.836;4.330;2023-03-01T05:48:07;21.42;;;15.82;;
23119;SDS011;11729;50.836;4.330;2023-03-01T05:50:36;19.92;;;15.43;;
23119;SDS011;11729;50.836;4.330;2023-03-01T05:53:04;23.70;;;14.73;;
23119;SDS011;11729;50.836;4.330;2023-03-01T05:55:32;18.50;;;16.52;;
23119;SDS011;11729;50.836;4.330;2023-03-01T05:58:04;20.83;;;15.73;;
23119;SDS011;11729;50.836;4.330;2023-03-01T06:00:32;23.55;;;15.85;;
23119;SDS011;11729;50.836;4.330;2023-03-01T06:03:00;23.83;;;16.02;;
23119;SDS011;11729;50.836;4.330;2023-03-01T06:07:53;20.20;;;15.57;;
23119;SDS011;11729;50.836;4.330;2023-03-01T06:10:21;20.05;;;15.82;;
23119;SDS011;11729;50.836;4.330;2023-03-01T06:12:48;20.27;;;16.10;;
23119;SDS011;11729;50.836;4.330;2023-03-01T06:15:15;22.00;;;16.65;;
23119;SDS011;11729;50.836;4.330;2023-03-01T06:17:42;22.90;;;15.93;;
23119;SDS011;11729;50.836;4.330;2023-03-01T06:20:11;22.23;;;16.25;;
23119;SDS011;11729;50.836;4.330;2023-03-01T06:22:40;18.77;;;16.23;;
23119;SDS011;11729;50.836;4.330;2023-03-01T06:25:07;18.08;;;16.13;;
23119;SDS011;11729;50.836;4.330;2023-03-01T06:27:33;22.52;;;15.98;;
23119;SDS011;11729;50.836;4.330;2023-03-01T06:29:59;21.67;;;15.73;;
23119;SDS011;11729;50.836;4.330;2023-03-01T06:32:24;20.48;;;16.15;;
23119;SDS011;11729;50.836;4.330;2023-03-01T06:34:50;24.63;;;16.35;;
23119;SDS011;11729;50.836;4.330;2023-03-01T06:37:16;33.30;;;16.75;;
23119;SDS011;11729;50.836;4.330;2023-03-01T06:39:41;20.95;;;16.33;;
23119;SDS011;11729;50.836;4.330;2023-03-01T06:42:07;19.38;;;15.73;;
23119;SDS011;11729;50.836;4.330;2023-03-01T06:44:35;22.97;;;15.87;;
23119;SDS011;11729;50.836;4.330;2023-03-01T06:47:01;20.40;;;16.05;;
23119;SDS011;11729;50.836;4.330;2023-03-01T06:49:26;17.85;;;15.88;;
23119;SDS011;11729;50.836;4.330;2023-03-01T06:51:52;21.02;;;15.82;;
23119;SDS011;11729;50.836;4.330;2023-03-01T06:54:18;22.27;;;16.25;;
23119;SDS011;11729;50.836;4.330;2023-03-01T06:56:47;19.05;;;16.67;;
23119;SDS011;11729;50.836;4.330;2023-03-01T06:59:13;17.70;;;15.90;;
23119;SDS011;11729;50.836;4.330;2023-03-01T07:01:39;24.63;;;16.73;;
23119;SDS011;11729;50.836;4.330;2023-03-01T07:04:05;19.10;;;15.82;;
23119;SDS011;11729;50.836;4.330;2023-03-01T07:06:30;18.50;;;15.85;;
23119;SDS011;11729;50.836;4.330;2023-03-01T07:08:56;22.75;;;16.58;;
23119;SDS011;11729;50.836;4.330;2023-03-01T07:11:22;18.95;;;16.33;;
23119;SDS011;11729;50.836;4.330;2023-03-01T07:13:48;19.27;;;15.85;;
23119;SDS011;11729;50.836;4.330;2023-03-01T07:16:14;21.15;;;15.75;;
23119;SDS011;11729;50.836;4.330;2023-03-01T07:18:43;19.27;;;16.85;;
23119;SDS011;11729;50.836;4.330;2023-03-01T07:21:13;17.35;;;15.55;;
23119;SDS011;11729;50.836;4.330;2023-03-01T07:23:40;20.35;;;16.02;;
23119;SDS011;11729;50.836;4.330;2023-03-01T07:26:06;24.90;;;16.20;;
23119;SDS011;11729;50.836;4.330;2023-03-01T07:28:31;18.98;;;16.60;;
23119;SDS011;11729;50.836;4.330;2023-03-01T07:31:04;19.50;;;16.65;;
23119;SDS011;11729;50.836;4.330;2023-03-01T07:33:32;21.65;;;16.40;;
23119;SDS011;11729;50.836;4.330;2023-03-01T07:35:58;23.00;;;16.33;;
23119;SDS011;11729;50.836;4.330;2023-03-01T07:38:26;17.60;;;15.70;;
23119;SDS011;11729;50.836;4.330;2023-03-01T07:40:52;21.45;;;16.13;;
23119;SDS011;11729;50.836;4.330;2023-03-01T07:43:18;23.85;;;15.88;;
23119;SDS011;11729;50.836;4.330;2023-03-01T07:45:45;17.75;;;15.82;;
23119;SDS011;11729;50.836;4.330;2023-03-01T07:48:11;23.77;;;15.68;;
23119;SDS011;11729;50.836;4.330;2023-03-01T07:50:36;21.52;;;16.13;;
23119;SDS011;11729;50.836;4.330;2023-03-01T07:53:02;26.90;;;16.85;;
23119;SDS011;11729;50.836;4.330;2023-03-01T07:55:27;17.95;;;15.82;;
23119;SDS011;11729;50.836;4.330;2023-03-01T07:57:53;20.38;;;15.98;;
23119;SDS011;11729;50.836;4.330;2023-03-01T08:00:19;19.83;;;16.17;;
23119;SDS011;11729;50.836;4.330;2023-03-01T08:02:45;18.10;;;15.80;;
23119;SDS011;11729;50.836;4.330;2023-03-01T08:05:11;18.30;;;15.65;;
23119;SDS011;11729;50.836;4.330;2023-03-01T08:07:36;17.70;;;14.63;;
23119;SDS011;11729;50.836;4.330;2023-03-01T08:10:02;16.17;;;14.02;;
23119;SDS011;11729;50.836;4.330;2023-03-01T08:12:29;15.32;;;13.70;;
23119;SDS011;11729;50.836;4.330;2023-03-01T08:14:54;15.73;;;13.60;;
23119;SDS011;11729;50.836;4.330;2023-03-01T08:17:21;16.95;;;14.32;;
23119;SDS011;11729;50.836;4.330;2023-03-01T08:19:48;16.80;;;14.02;;
23119;SDS011;11729;50.836;4.330;2023-03-01T08:22:14;17.05;;;13.75;;
23119;SDS011;11729;50.836;4.330;2023-03-01T08:24:39;16.10;;;13.13;;
23119;SDS011;11729;50.836;4.330;2023-03-01T08:27:05;16.10;;;13.93;;
23119;SDS011;11729;50.836;4.330;2023-03-01T08:29:31;17.80;;;13.85;;
23119;SDS011;11729;50.836;4.330;2023-03-01T08:31:57;20.73;;;14.05;;
23119;SDS011;11729;50.836;4.330;2023-03-01T08:34:22;19.27;;;13.75;;
23119;SDS011;11729;50.836;4.330;2023-03-01T08:36:48;20.75;;;14.77;;
23119;SDS011;11729;50.836;4.330;2023-03-01T08:39:15;19.05;;;13.48;;
23119;SDS011;11729;50.836;4.330;2023-03-01T08:41:43;15.05;;;13.48;;
23119;SDS011;11729;50.836;4.330;2023-03-01T08:44:09;21.23;;;14.43;;
23119;SDS011;11729;50.836;4.330;2023-03-01T08:46:37;22.25;;;14.65;;
23119;SDS011;11729;50.836;4.330;2023-03-01T08:49:09;17.52;;;13.23;;
23119;SDS011;11729;50.836;4.330;2023-03-01T08:51:37;17.40;;;14.55;;
23119;SDS011;11729;50.836;4.330;2023-03-01T08:54:04;15.68;;;13.65;;
23119;SDS011;11729;50.836;4.330;2023-03-01T08:56:30;19.40;;;13.93;;
23119;SDS011;11729;50.836;4.330;2023-03-01T08:58:56;20.38;;;13.00;;
23119;SDS011;11729;50.836;4.330;2023-03-01T09:01:22;16.58;;;13.48;;
23119;SDS011;11729;50.836;4.330;2023-03-01T09:03:48;17.15;;;13.40;;
23119;SDS011;11729;50.836;4.330;2023-03-01T09:06:14;14.98;;;13.40;;
23119;SDS011;11729;50.836;4.330;2023-03-01T09:08:43;16.05;;;13.32;;
23119;SDS011;11729;50.836;4.330;2023-03-01T09:11:12;15.57;;;13.93;;
23119;SDS011;11729;50.836;4.330;2023-03-01T09:13:40;18.02;;;14.18;;
23119;SDS011;11729;50.836;4.330;2023-03-01T09:16:06;17.10;;;15.35;;
23119;SDS011;11729;50.836;4.330;2023-03-01T09:18:33;16.85;;;15.10;;
23119;SDS011;11729;50.836;4.330;2023-03-01T09:21:04;19.23;;;15.40;;
23119;SDS011;11729;50.836;4.330;2023-03-01T09:23:35;23.88;;;15.43;;
23119;SDS011;11729;50.836;4.330;2023-03-01T09:26:03;17.30;;;15.40;;
23119;SDS011;11729;50.836;4.330;2023-03-01T09:28:30;22.25;;;16.30;;
23119;SDS011;11729;50.836;4.330;2023-03-01T09:30:59;21.15;;;15.85;;
23119;SDS011;11729;50.836;4.330;2023-03-01T09:33:25;19.17;;;15.40;;
23119;SDS011;11729;50.836;4.330;2023-03-01T09:35:58;19.75;;;16.38;;
23119;SDS011;11729;50.836;4.330;2023-03-01T09:38:26;19.73;;;16.05;;
23119;SDS011;11729;50.836;4.330;2023-03-01T09:40:52;27.20;;;15.82;;
23119;SDS011;11729;50.836;4.330;2023-03-01T09:43:23;19.63;;;16.27;;
23119;SDS011;11729;50.836;4.330;2023-03-01T09:46:00;17.02;;;15.18;;
23119;SDS011;11729;50.836;4.330;2023-03-01T09:48:32;18.95;;;15.95;;
23119;SDS011;11729;50.836;4.330;2023-03-01T09:51:06;20.30;;;15.20;;
23119;SDS011;11729;50.836;4.330;2023-03-01T09:53:37;18.80;;;15.80;;
23119;SDS011;11729;50.836;4.330;2023-03-01T10:01:38;21.08;;;16.25;;
23119;SDS011;11729;50.836;4.330;2023-03-01T10:07:14;19.90;;;16.70;;
23119;SDS011;11729;50.836;4.330;2023-03-01T10:09:52;20.95;;;16.65;;
23119;SDS011;11729;50.836;4.330;2023-03-01T10:12:19;22.65;;;16.85;;
23119;SDS011;11729;50.836;4.330;2023-03-01T10:15:11;20.83;;;16.98;;
23119;SDS011;11729;50.836;4.330;2023-03-01T10:20:14;17.83;;;15.32;;
23119;SDS011;11729;50.836;4.330;2023-03-01T10:22:40;23.67;;;15.45;;
23119;SDS011;11729;50.836;4.330;2023-03-01T10:25:08;20.73;;;15.70;;
23119;SDS011;11729;50.836;4.330;2023-03-01T10:27:46;16.27;;;14.00;;
23119;SDS011;11729;50.836;4.330;2023-03-01T10:30:35;18.88;;;14.57;;
23119;SDS011;11729;50.836;4.330;2023-03-01T10:33:05;17.20;;;15.00;;
23119;SDS011;11729;50.836;4.330;2023-03-01T10:36:00;19.92;;;15.50;;
23119;SDS011;11729;50.836;4.330;2023-03-01T10:38:27;16.83;;;14.70;;
23119;SDS011;11729;50.836;4.330;2023-03-01T10:41:04;16.55;;;13.63;;
23119;SDS011;11729;50.836;4.330;2023-03-01T10:43:40;15.57;;;13.98;;
23119;SDS011;11729;50.836;4.330;2023-03-01T10:46:24;16.88;;;13.43;;
23119;SDS011;11729;50.836;4.330;2023-03-01T10:51:42;17.02;;;14.52;;
23119;SDS011;11729;50.836;4.330;2023-03-01T10:56:57;18.20;;;13.52;;
23119;SDS011;11729;50.836;4.330;2023-03-01T11:05:31;16.02;;;13.35;;
23119;SDS011;11729;50.836;4.330;2023-03-01T11:07:47;16.83;;;14.60;;
23119;SDS011;11729;50.836;4.330;2023-03-01T11:10:23;17.75;;;13.48;;
23119;SDS011;11729;50.836;4.330;2023-03-01T11:13:07;15.35;;;13.07;;
23119;SDS011;11729;50.836;4.330;2023-03-01T11:15:41;15.07;;;13.05;;
23119;SDS011;11729;50.836;4.330;2023-03-01T11:18:29;16.88;;;13.52;;
23119;SDS011;11729;50.836;4.330;2023-03-01T11:20:54;14.52;;;13.10;;
23119;SDS011;11729;50.836;4.330;2023-03-01T11:23:21;17.77;;;13.70;;
23119;SDS011;11729;50.836;4.330;2023-03-01T11:25:49;16.85;;;12.73;;
23119;SDS011;11729;50.836;4.330;2023-03-01T11:28:20;14.50;;;13.00;;
23119;SDS011;11729;50.836;4.330;2023-03-01T11:30:54;14.57;;;13.18;;
23119;SDS011;11729;50.836;4.330;2023-03-01T11:44:43;14.75;;;13.18;;
23119;SDS011;11729;50.836;4.330;2023-03-01T11:49:57;13.60;;;12.20;;
23119;SDS011;11729;50.836;4.330;2023-03-01T11:52:41;17.20;;;12.95;;
23119;SDS011;11729;50.836;4.330;2023-03-01T12:12:54;13.77;;;12.00;;
23119;SDS011;11729;50.836;4.330;2023-03-01T12:21:00;13.68;;;12.27;;
23119;SDS011;11729;50.836;4.330;2023-03-01T12:23:53;14.18;;;12.77;;
23119;SDS011;11729;50.836;4.330;2023-03-01T12:34:17;12.83;;;11.53;;
23119;SDS011;11729;50.836;4.330;2023-03-01T12:50:48;16.60;;;12.35;;
23119;SDS011;11729;50.836;4.330;2023-03-01T12:53:22;15.90;;;12.13;;
23119;SDS011;11729;50.836;4.330;2023-03-01T12:55:54;13.30;;;11.77;;
23119;SDS011;11729;50.836;4.330;2023-03-01T13:12:42;13.98;;;12.45;;
23119;SDS011;11729;50.836;4.330;2023-03-01T13:17:51;13.70;;;12.10;;
23119;SDS011;11729;50.836;4.330;2023-03-01T13:20:19;14.73;;;12.43;;
23119;SDS011;11729;50.836;4.330;2023-03-01T13:23:00;13.70;;;11.82;;
23119;SDS011;11729;50.836;4.330;2023-03-01T13:25:35;13.23;;;11.65;;
23119;SDS011;11729;50.836;4.330;2023-03-01T13:33:48;15.70;;;11.30;;
23119;SDS011;11729;50.836;4.330;2023-03-01T13:44:12;15.18;;;11.95;;
23119;SDS011;11729;50.836;4.330;2023-03-01T13:46:47;13.85;;;12.48;;
23119;SDS011;11729;50.836;4.330;2023-03-01T13:49:16;14.55;;;12.25;;
23119;SDS011;11729;50.836;4.330;2023-03-01T13:51:46;15.57;;;12.85;;
23119;SDS011;11729;50.836;4.330;2023-03-01T13:54:14;18.83;;;13.20;;
23119;SDS011;11729;50.836;4.330;2023-03-01T13:56:41;18.63;;;13.55;;
23119;SDS011;11729;50.836;4.330;2023-03-01T14:01:38;16.00;;;12.80;;
23119;SDS011;11729;50.836;4.330;2023-03-01T14:04:18;15.45;;;13.25;;
23119;SDS011;11729;50.836;4.330;2023-03-01T14:06:44;16.95;;;12.75;;
23119;SDS011;11729;50.836;4.330;2023-03-01T14:09:14;22.45;;;13.93;;
23119;SDS011;11729;50.836;4.330;2023-03-01T14:17:10;16.27;;;12.88;;
23119;SDS011;11729;50.836;4.330;2023-03-01T14:19:43;13.25;;;11.85;;
23119;SDS011;11729;50.836;4.330;2023-03-01T14:24:55;13.73;;;12.07;;
23119;SDS011;11729;50.836;4.330;2023-03-01T14:27:26;14.93;;;12.60;;
23119;SDS011;11729;50.836;4.330;2023-03-01T14:29:58;19.75;;;12.57;;
23119;SDS011;11729;50.836;4.330;2023-03-01T14:32:26;16.55;;;12.82;;
23119;SDS011;11729;50.836;4.330;2023-03-01T14:34:54;17.17;;;13.27;;
23119;SDS011;11729;50.836;4.330;2023-03-01T14:37:24;15.95;;;13.90;;
23119;SDS011;11729;50.836;4.330;2023-03-01T14:39:50;16.10;;;13.25;;
23119;SDS011;11729;50.836;4.330;2023-03-01T14:42:17;15.98;;;13.80;;
23119;SDS011;11729;50.836;4.330;2023-03-01T14:44:46;21.42;;;13.73;;
23119;SDS011;11729;50.836;4.330;2023-03-01T14:47:15;15.00;;;13.38;;
23119;SDS011;11729;50.836;4.330;2023-03-01T14:49:47;18.63;;;13.88;;
23119;SDS011;11729;50.836;4.330;2023-03-01T14:52:22;22.30;;;15.32;;
23119;SDS011;11729;50.836;4.330;2023-03-01T14:54:53;20.10;;;15.48;;
23119;SDS011;11729;50.836;4.330;2023-03-01T14:59:52;17.73;;;15.35;;
23119;SDS011;11729;50.836;4.330;2023-03-01T15:02:24;18.65;;;15.00;;
23119;SDS011;11729;50.836;4.330;2023-03-01T15:04:54;18.10;;;14.80;;
23119;SDS011;11729;50.836;4.330;2023-03-01T15:07:29;16.98;;;15.18;;
23119;SDS011;11729;50.836;4.330;2023-03-01T15:09:58;16.33;;;14.40;;
23119;SDS011;11729;50.836;4.330;2023-03-01T15:14:57;20.25;;;14.07;;
23119;SDS011;11729;50.836;4.330;2023-03-01T15:17:26;19.10;;;14.55;;
23119;SDS011;11729;50.836;4.330;2023-03-01T15:19:59;19.45;;;14.43;;
23119;SDS011;11729;50.836;4.330;2023-03-01T15:22:43;15.75;;;14.07;;
23119;SDS011;11729;50.836;4.330;2023-03-01T15:25:18;15.60;;;14.00;;
23119;SDS011;11729;50.836;4.330;2023-03-01T15:27:47;19.38;;;14.77;;
23119;SDS011;11729;50.836;4.330;2023-03-01T15:30:18;17.00;;;13.70;;
23119;SDS011;11729;50.836;4.330;2023-03-01T15:35:57;19.75;;;13.50;;
23119;SDS011;11729;50.836;4.330;2023-03-01T15:40:53;20.27;;;14.85;;
23119;SDS011;11729;50.836;4.330;2023-03-01T15:43:42;17.00;;;15.20;;
23119;SDS011;11729;50.836;4.330;2023-03-01T15:46:17;15.40;;;13.80;;
23119;SDS011;11729;50.836;4.330;2023-03-01T15:48:50;17.67;;;14.43;;
23119;SDS011;11729;50.836;4.330;2023-03-01T15:51:20;16.58;;;14.65;;
23119;SDS011;11729;50.836;4.330;2023-03-01T15:53:52;25.45;;;14.77;;
23119;SDS011;11729;50.836;4.330;2023-03-01T15:56:18;16.13;;;14.52;;
23119;SDS011;11729;50.836;4.330;2023-03-01T15:58:44;18.63;;;14.90;;
23119;SDS011;11729;50.836;4.330;2023-03-01T16:01:14;16.42;;;14.30;;
23119;SDS011;11729;50.836;4.330;2023-03-01T16:03:45;16.70;;;14.20;;
23119;SDS011;11729;50.836;4.330;2023-03-01T16:06:11;17.65;;;13.80;;
23119;SDS011;11729;50.836;4.330;2023-03-01T16:08:37;19.67;;;14.95;;
23119;SDS011;11729;50.836;4.330;2023-03-01T16:11:14;16.60;;;13.95;;
23119;SDS011;11729;50.836;4.330;2023-03-01T16:13:42;15.18;;;13.70;;
23119;SDS011;11729;50.836;4.330;2023-03-01T16:16:12;16.45;;;14.63;;
23119;SDS011;11729;50.836;4.330;2023-03-01T16:18:44;15.75;;;13.65;;
23119;SDS011;11729;50.836;4.330;2023-03-01T16:21:14;16.48;;;14.20;;
23119;SDS011;11729;50.836;4.330;2023-03-01T16:23:45;16.13;;;13.77;;
23119;SDS011;11729;50.836;4.330;2023-03-01T16:26:11;15.27;;;13.38;;
23119;SDS011;11729;50.836;4.330;2023-03-01T16:28:38;16.02;;;13.88;;
23119;SDS011;11729;50.836;4.330;2023-03-01T16:31:08;15.23;;;12.80;;
23119;SDS011;11729;50.836;4.330;2023-03-01T16:33:34;17.52;;;14.50;;
23119;SDS011;11729;50.836;4.330;2023-03-01T16:36:01;21.48;;;15.77;;
23119;SDS011;11729;50.836;4.330;2023-03-01T16:38:32;20.42;;;15.43;;
23119;SDS011;11729;50.836;4.330;2023-03-01T16:40:59;16.60;;;14.88;;
23119;SDS011;11729;50.836;4.330;2023-03-01T16:43:25;19.42;;;13.30;;
23119;SDS011;11729;50.836;4.330;2023-03-01T16:45:51;16.40;;;13.80;;
23119;SDS011;11729;50.836;4.330;2023-03-01T16:48:17;18.77;;;13.90;;
23119;SDS011;11729;50.836;4.330;2023-03-01T16:50:42;16.63;;;13.60;;
23119;SDS011;11729;50.836;4.330;2023-03-01T16:53:08;18.40;;;13.93;;
23119;SDS011;11729;50.836;4.330;2023-03-01T16:55:34;18.42;;;14.50;;
23119;SDS011;11729;50.836;4.330;2023-03-01T16:58:00;18.30;;;15.25;;
23119;SDS011;11729;50.836;4.330;2023-03-01T17:00:26;20.15;;;14.32;;